Saint Louis, Missouri
Traffic Map
Current Weather Conditions
Saint Louis, Missouri
Broken Clouds
Broken Clouds
20°
Feels Like: 20°
Wind Chill: 20° Ceiling: 6000
Heat Index: 20° Visibility: 10mi
Dew Point: Wind: 15mph
Humidity: 39% Direction: 290° (WNW)
Pressure: 29.79in Gusts: 29mph
Raw Report DataKCPS 232253Z 29013G25KT 10SM BKN060 BKN080 BKN110 20/06 A2979 RMK AO2 SLP085 T02000056
Traffic Incident Summary
Active as of:
Severity:
Category:
InformationThere was an issue retrieving the traffic information for this location. Please try a different location or try again shortly.
Advertisements